sensor_id;sensor_type;location;lat;lon;timestamp;P1;durP1;ratioP1;P2;durP2;ratioP2
78732;SDS011;68056;52.530;5.454;2023-09-08T00:01:56;2.58;;;2.25;;
78732;SDS011;68056;52.530;5.454;2023-09-08T00:04:21;3.03;;;2.05;;
78732;SDS011;68056;52.530;5.454;2023-09-08T00:06:48;3.00;;;2.67;;
78732;SDS011;68056;52.530;5.454;2023-09-08T00:09:13;2.45;;;2.25;;
78732;SDS011;68056;52.530;5.454;2023-09-08T00:11:39;2.88;;;2.15;;
78732;SDS011;68056;52.530;5.454;2023-09-08T00:14:05;3.17;;;2.20;;
78732;SDS011;68056;52.530;5.454;2023-09-08T00:16:30;2.30;;;2.00;;
78732;SDS011;68056;52.530;5.454;2023-09-08T00:18:56;3.15;;;2.28;;
78732;SDS011;68056;52.530;5.454;2023-09-08T00:21:23;3.05;;;2.53;;
78732;SDS011;68056;52.530;5.454;2023-09-08T00:23:50;2.65;;;2.40;;
78732;SDS011;68056;52.530;5.454;2023-09-08T00:26:16;2.65;;;2.20;;
78732;SDS011;68056;52.530;5.454;2023-09-08T00:28:42;3.58;;;2.40;;
78732;SDS011;68056;52.530;5.454;2023-09-08T00:31:07;2.50;;;2.30;;
78732;SDS011;68056;52.530;5.454;2023-09-08T00:33:33;3.00;;;2.38;;
78732;SDS011;68056;52.530;5.454;2023-09-08T00:35:59;3.17;;;2.67;;
78732;SDS011;68056;52.530;5.454;2023-09-08T00:38:24;2.83;;;2.20;;
78732;SDS011;68056;52.530;5.454;2023-09-08T00:40:50;2.67;;;2.33;;
78732;SDS011;68056;52.530;5.454;2023-09-08T00:43:16;3.25;;;2.50;;
78732;SDS011;68056;52.530;5.454;2023-09-08T00:45:43;3.17;;;2.42;;
78732;SDS011;68056;52.530;5.454;2023-09-08T00:48:10;2.60;;;2.22;;
78732;SDS011;68056;52.530;5.454;2023-09-08T00:50:36;2.92;;;2.42;;
78732;SDS011;68056;52.530;5.454;2023-09-08T00:53:04;2.83;;;2.28;;
78732;SDS011;68056;52.530;5.454;2023-09-08T00:55:33;2.88;;;2.40;;
78732;SDS011;68056;52.530;5.454;2023-09-08T00:57:59;2.70;;;2.33;;
78732;SDS011;68056;52.530;5.454;2023-09-08T01:00:26;2.97;;;2.60;;
78732;SDS011;68056;52.530;5.454;2023-09-08T01:02:52;2.88;;;2.47;;
78732;SDS011;68056;52.530;5.454;2023-09-08T01:05:18;3.05;;;2.50;;
78732;SDS011;68056;52.530;5.454;2023-09-08T01:07:45;3.00;;;2.38;;
78732;SDS011;68056;52.530;5.454;2023-09-08T01:10:12;4.05;;;2.42;;
78732;SDS011;68056;52.530;5.454;2023-09-08T01:12:40;4.10;;;2.90;;
78732;SDS011;68056;52.530;5.454;2023-09-08T01:15:05;3.05;;;2.35;;
78732;SDS011;68056;52.530;5.454;2023-09-08T01:17:32;2.35;;;2.15;;
78732;SDS011;68056;52.530;5.454;2023-09-08T01:19:59;2.90;;;2.60;;
78732;SDS011;68056;52.530;5.454;2023-09-08T01:22:38;3.53;;;2.50;;
78732;SDS011;68056;52.530;5.454;2023-09-08T01:25:25;2.60;;;2.33;;
78732;SDS011;68056;52.530;5.454;2023-09-08T01:27:52;3.20;;;2.65;;
78732;SDS011;68056;52.530;5.454;2023-09-08T01:30:20;2.97;;;2.55;;
78732;SDS011;68056;52.530;5.454;2023-09-08T01:32:48;3.63;;;2.75;;
78732;SDS011;68056;52.530;5.454;2023-09-08T01:35:15;3.75;;;2.42;;
78732;SDS011;68056;52.530;5.454;2023-09-08T01:37:41;3.33;;;3.03;;
78732;SDS011;68056;52.530;5.454;2023-09-08T01:40:10;3.55;;;2.67;;
78732;SDS011;68056;52.530;5.454;2023-09-08T01:42:36;3.85;;;3.00;;
78732;SDS011;68056;52.530;5.454;2023-09-08T01:45:02;3.50;;;2.95;;
78732;SDS011;68056;52.530;5.454;2023-09-08T01:47:29;3.53;;;3.22;;
78732;SDS011;68056;52.530;5.454;2023-09-08T01:49:55;4.20;;;2.45;;
78732;SDS011;68056;52.530;5.454;2023-09-08T01:52:20;3.50;;;2.53;;
78732;SDS011;68056;52.530;5.454;2023-09-08T01:54:46;3.00;;;2.63;;
78732;SDS011;68056;52.530;5.454;2023-09-08T01:57:12;3.70;;;3.00;;
78732;SDS011;68056;52.530;5.454;2023-09-08T01:59:37;3.20;;;2.67;;
78732;SDS011;68056;52.530;5.454;2023-09-08T02:02:03;2.90;;;2.50;;
78732;SDS011;68056;52.530;5.454;2023-09-08T02:04:29;4.03;;;2.63;;
78732;SDS011;68056;52.530;5.454;2023-09-08T02:06:54;3.20;;;2.75;;
78732;SDS011;68056;52.530;5.454;2023-09-08T02:09:20;2.92;;;2.58;;
78732;SDS011;68056;52.530;5.454;2023-09-08T02:11:46;2.83;;;2.55;;
78732;SDS011;68056;52.530;5.454;2023-09-08T02:14:12;3.30;;;2.80;;
78732;SDS011;68056;52.530;5.454;2023-09-08T02:16:38;3.40;;;2.63;;
78732;SDS011;68056;52.530;5.454;2023-09-08T02:19:04;2.70;;;2.50;;
78732;SDS011;68056;52.530;5.454;2023-09-08T02:21:30;3.45;;;2.20;;
78732;SDS011;68056;52.530;5.454;2023-09-08T02:23:56;3.40;;;2.78;;
78732;SDS011;68056;52.530;5.454;2023-09-08T02:26:21;3.10;;;2.47;;
78732;SDS011;68056;52.530;5.454;2023-09-08T02:28:47;2.60;;;2.30;;
78732;SDS011;68056;52.530;5.454;2023-09-08T02:31:13;3.38;;;2.42;;
78732;SDS011;68056;52.530;5.454;2023-09-08T02:33:38;2.80;;;2.38;;
78732;SDS011;68056;52.530;5.454;2023-09-08T02:36:04;2.47;;;2.25;;
78732;SDS011;68056;52.530;5.454;2023-09-08T02:38:31;2.92;;;2.63;;
78732;SDS011;68056;52.530;5.454;2023-09-08T02:40:57;3.30;;;3.00;;
78732;SDS011;68056;52.530;5.454;2023-09-08T02:43:23;2.95;;;2.47;;
78732;SDS011;68056;52.530;5.454;2023-09-08T02:45:49;2.42;;;2.22;;
78732;SDS011;68056;52.530;5.454;2023-09-08T02:48:15;3.22;;;2.63;;
78732;SDS011;68056;52.530;5.454;2023-09-08T02:50:41;2.90;;;2.60;;
78732;SDS011;68056;52.530;5.454;2023-09-08T02:53:08;4.60;;;2.75;;
78732;SDS011;68056;52.530;5.454;2023-09-08T02:55:34;2.50;;;2.30;;
78732;SDS011;68056;52.530;5.454;2023-09-08T02:57:59;3.40;;;2.50;;
78732;SDS011;68056;52.530;5.454;2023-09-08T03:00:27;3.92;;;2.85;;
78732;SDS011;68056;52.530;5.454;2023-09-08T03:02:53;3.88;;;2.83;;
78732;SDS011;68056;52.530;5.454;2023-09-08T03:05:19;3.08;;;2.65;;
78732;SDS011;68056;52.530;5.454;2023-09-08T03:07:47;4.25;;;3.00;;
78732;SDS011;68056;52.530;5.454;2023-09-08T03:10:14;3.50;;;2.70;;
78732;SDS011;68056;52.530;5.454;2023-09-08T03:12:39;3.47;;;2.95;;
78732;SDS011;68056;52.530;5.454;2023-09-08T03:15:06;4.03;;;2.72;;
78732;SDS011;68056;52.530;5.454;2023-09-08T03:17:32;3.13;;;2.50;;
78732;SDS011;68056;52.530;5.454;2023-09-08T03:19:58;3.10;;;2.80;;
78732;SDS011;68056;52.530;5.454;2023-09-08T03:22:32;3.35;;;2.75;;
78732;SDS011;68056;52.530;5.454;2023-09-08T03:24:58;3.30;;;2.88;;
78732;SDS011;68056;52.530;5.454;2023-09-08T03:27:23;3.35;;;2.90;;
78732;SDS011;68056;52.530;5.454;2023-09-08T03:29:49;3.92;;;2.90;;
78732;SDS011;68056;52.530;5.454;2023-09-08T03:32:15;4.00;;;2.95;;
78732;SDS011;68056;52.530;5.454;2023-09-08T03:34:40;3.50;;;2.92;;
78732;SDS011;68056;52.530;5.454;2023-09-08T03:37:06;3.53;;;2.55;;
78732;SDS011;68056;52.530;5.454;2023-09-08T03:39:31;3.38;;;2.80;;
78732;SDS011;68056;52.530;5.454;2023-09-08T03:41:57;4.15;;;2.88;;
78732;SDS011;68056;52.530;5.454;2023-09-08T03:44:23;3.55;;;3.08;;
78732;SDS011;68056;52.530;5.454;2023-09-08T03:46:48;3.15;;;2.85;;
78732;SDS011;68056;52.530;5.454;2023-09-08T03:49:14;3.33;;;2.92;;
78732;SDS011;68056;52.530;5.454;2023-09-08T03:51:40;3.97;;;2.85;;
78732;SDS011;68056;52.530;5.454;2023-09-08T03:54:05;3.20;;;2.50;;
78732;SDS011;68056;52.530;5.454;2023-09-08T03:56:31;3.58;;;2.65;;
78732;SDS011;68056;52.530;5.454;2023-09-08T03:58:56;3.10;;;2.80;;
78732;SDS011;68056;52.530;5.454;2023-09-08T04:01:22;3.60;;;2.83;;
78732;SDS011;68056;52.530;5.454;2023-09-08T04:03:48;3.65;;;2.95;;
78732;SDS011;68056;52.530;5.454;2023-09-08T04:06:13;3.60;;;3.30;;
78732;SDS011;68056;52.530;5.454;2023-09-08T04:08:39;4.32;;;3.00;;
78732;SDS011;68056;52.530;5.454;2023-09-08T04:11:05;4.63;;;3.13;;
78732;SDS011;68056;52.530;5.454;2023-09-08T04:13:30;4.45;;;3.53;;
78732;SDS011;68056;52.530;5.454;2023-09-08T04:15:56;3.65;;;2.88;;
78732;SDS011;68056;52.530;5.454;2023-09-08T04:18:22;3.42;;;2.90;;
78732;SDS011;68056;52.530;5.454;2023-09-08T04:20:47;3.88;;;3.10;;
78732;SDS011;68056;52.530;5.454;2023-09-08T04:23:13;3.67;;;2.60;;
78732;SDS011;68056;52.530;5.454;2023-09-08T04:25:38;4.15;;;2.78;;
78732;SDS011;68056;52.530;5.454;2023-09-08T04:28:04;3.88;;;2.97;;
78732;SDS011;68056;52.530;5.454;2023-09-08T04:30:30;3.60;;;2.70;;
78732;SDS011;68056;52.530;5.454;2023-09-08T04:32:56;3.45;;;3.13;;
78732;SDS011;68056;52.530;5.454;2023-09-08T04:35:21;3.10;;;2.75;;
78732;SDS011;68056;52.530;5.454;2023-09-08T04:37:47;3.78;;;2.85;;
78732;SDS011;68056;52.530;5.454;2023-09-08T04:40:13;3.58;;;2.50;;
78732;SDS011;68056;52.530;5.454;2023-09-08T04:42:39;3.30;;;2.58;;
78732;SDS011;68056;52.530;5.454;2023-09-08T04:45:05;3.85;;;2.83;;
78732;SDS011;68056;52.530;5.454;2023-09-08T04:47:31;4.50;;;2.65;;
78732;SDS011;68056;52.530;5.454;2023-09-08T04:49:56;2.95;;;2.33;;
78732;SDS011;68056;52.530;5.454;2023-09-08T04:52:22;3.67;;;3.00;;
78732;SDS011;68056;52.530;5.454;2023-09-08T04:54:48;2.50;;;2.30;;
78732;SDS011;68056;52.530;5.454;2023-09-08T04:57:13;3.95;;;2.85;;
78732;SDS011;68056;52.530;5.454;2023-09-08T04:59:39;3.92;;;2.92;;
78732;SDS011;68056;52.530;5.454;2023-09-08T05:02:05;3.60;;;2.78;;
78732;SDS011;68056;52.530;5.454;2023-09-08T05:04:30;3.90;;;3.08;;
78732;SDS011;68056;52.530;5.454;2023-09-08T05:06:56;3.85;;;2.80;;
78732;SDS011;68056;52.530;5.454;2023-09-08T05:09:21;3.33;;;2.90;;
78732;SDS011;68056;52.530;5.454;2023-09-08T05:11:47;4.00;;;3.40;;
78732;SDS011;68056;52.530;5.454;2023-09-08T05:14:13;3.10;;;2.80;;
78732;SDS011;68056;52.530;5.454;2023-09-08T05:16:38;4.55;;;3.03;;
78732;SDS011;68056;52.530;5.454;2023-09-08T05:19:11;4.78;;;3.63;;
78732;SDS011;68056;52.530;5.454;2023-09-08T05:21:40;4.70;;;3.30;;
78732;SDS011;68056;52.530;5.454;2023-09-08T05:24:06;3.70;;;3.05;;
78732;SDS011;68056;52.530;5.454;2023-09-08T05:26:33;4.05;;;3.40;;
78732;SDS011;68056;52.530;5.454;2023-09-08T05:29:01;4.55;;;3.42;;
78732;SDS011;68056;52.530;5.454;2023-09-08T05:31:26;4.20;;;3.05;;
78732;SDS011;68056;52.530;5.454;2023-09-08T05:33:52;4.30;;;3.90;;
78732;SDS011;68056;52.530;5.454;2023-09-08T05:36:18;3.90;;;3.40;;
78732;SDS011;68056;52.530;5.454;2023-09-08T05:38:43;5.55;;;3.58;;
78732;SDS011;68056;52.530;5.454;2023-09-08T05:41:09;5.60;;;3.60;;
78732;SDS011;68056;52.530;5.454;2023-09-08T05:43:35;5.00;;;4.25;;
78732;SDS011;68056;52.530;5.454;2023-09-08T05:46:01;4.95;;;3.65;;
78732;SDS011;68056;52.530;5.454;2023-09-08T05:48:27;5.28;;;3.90;;
78732;SDS011;68056;52.530;5.454;2023-09-08T05:50:52;4.60;;;3.67;;
78732;SDS011;68056;52.530;5.454;2023-09-08T05:53:18;4.95;;;3.65;;
78732;SDS011;68056;52.530;5.454;2023-09-08T05:55:44;4.45;;;3.50;;
78732;SDS011;68056;52.530;5.454;2023-09-08T05:58:09;5.60;;;3.72;;
78732;SDS011;68056;52.530;5.454;2023-09-08T06:00:36;4.53;;;3.70;;
78732;SDS011;68056;52.530;5.454;2023-09-08T06:03:01;4.88;;;3.55;;
78732;SDS011;68056;52.530;5.454;2023-09-08T06:05:27;5.80;;;4.00;;
78732;SDS011;68056;52.530;5.454;2023-09-08T06:07:53;5.78;;;4.13;;
78732;SDS011;68056;52.530;5.454;2023-09-08T06:10:19;4.20;;;3.38;;
78732;SDS011;68056;52.530;5.454;2023-09-08T06:12:45;4.28;;;3.80;;
78732;SDS011;68056;52.530;5.454;2023-09-08T06:15:10;3.92;;;3.38;;
78732;SDS011;68056;52.530;5.454;2023-09-08T06:17:36;4.70;;;3.55;;
78732;SDS011;68056;52.530;5.454;2023-09-08T06:20:02;4.82;;;3.38;;
78732;SDS011;68056;52.530;5.454;2023-09-08T06:22:27;4.80;;;3.28;;
78732;SDS011;68056;52.530;5.454;2023-09-08T06:24:53;4.65;;;3.22;;
78732;SDS011;68056;52.530;5.454;2023-09-08T06:27:19;5.00;;;3.72;;
78732;SDS011;68056;52.530;5.454;2023-09-08T06:29:44;4.43;;;3.75;;
78732;SDS011;68056;52.530;5.454;2023-09-08T06:32:10;3.65;;;2.92;;
78732;SDS011;68056;52.530;5.454;2023-09-08T06:34:36;4.35;;;3.30;;
78732;SDS011;68056;52.530;5.454;2023-09-08T06:37:02;3.97;;;3.45;;
78732;SDS011;68056;52.530;5.454;2023-09-08T06:39:31;4.80;;;3.70;;
78732;SDS011;68056;52.530;5.454;2023-09-08T06:41:58;4.13;;;3.72;;
78732;SDS011;68056;52.530;5.454;2023-09-08T06:44:24;4.85;;;3.70;;
78732;SDS011;68056;52.530;5.454;2023-09-08T06:46:50;3.83;;;3.42;;
78732;SDS011;68056;52.530;5.454;2023-09-08T06:49:16;4.93;;;4.03;;
78732;SDS011;68056;52.530;5.454;2023-09-08T06:51:42;4.70;;;4.00;;
78732;SDS011;68056;52.530;5.454;2023-09-08T06:56:41;4.15;;;3.58;;
78732;SDS011;68056;52.530;5.454;2023-09-08T06:59:06;4.78;;;3.30;;
78732;SDS011;68056;52.530;5.454;2023-09-08T07:01:43;4.68;;;3.88;;
78732;SDS011;68056;52.530;5.454;2023-09-08T07:04:10;4.93;;;3.63;;
78732;SDS011;68056;52.530;5.454;2023-09-08T07:06:38;4.28;;;3.70;;
78732;SDS011;68056;52.530;5.454;2023-09-08T07:09:06;4.82;;;3.38;;
78732;SDS011;68056;52.530;5.454;2023-09-08T07:11:33;3.70;;;3.40;;
78732;SDS011;68056;52.530;5.454;2023-09-08T07:13:59;4.03;;;3.47;;
78732;SDS011;68056;52.530;5.454;2023-09-08T07:16:25;5.88;;;4.57;;
78732;SDS011;68056;52.530;5.454;2023-09-08T07:18:50;5.20;;;4.22;;
78732;SDS011;68056;52.530;5.454;2023-09-08T07:21:16;4.05;;;3.60;;
78732;SDS011;68056;52.530;5.454;2023-09-08T07:23:41;5.60;;;4.22;;
78732;SDS011;68056;52.530;5.454;2023-09-08T07:26:07;4.55;;;3.85;;
78732;SDS011;68056;52.530;5.454;2023-09-08T07:28:33;4.35;;;3.95;;
78732;SDS011;68056;52.530;5.454;2023-09-08T07:31:04;4.68;;;3.55;;
78732;SDS011;68056;52.530;5.454;2023-09-08T07:33:31;4.32;;;3.72;;
78732;SDS011;68056;52.530;5.454;2023-09-08T07:36:12;5.78;;;3.33;;
78732;SDS011;68056;52.530;5.454;2023-09-08T07:38:41;3.78;;;3.47;;
78732;SDS011;68056;52.530;5.454;2023-09-08T07:41:06;3.72;;;3.35;;
78732;SDS011;68056;52.530;5.454;2023-09-08T07:43:32;4.97;;;4.13;;
78732;SDS011;68056;52.530;5.454;2023-09-08T07:45:58;3.90;;;3.50;;
78732;SDS011;68056;52.530;5.454;2023-09-08T07:48:24;5.00;;;3.53;;
78732;SDS011;68056;52.530;5.454;2023-09-08T07:50:58;4.95;;;3.47;;
78732;SDS011;68056;52.530;5.454;2023-09-08T07:53:27;4.55;;;3.83;;
78732;SDS011;68056;52.530;5.454;2023-09-08T07:55:53;5.20;;;4.10;;
78732;SDS011;68056;52.530;5.454;2023-09-08T07:58:19;5.05;;;4.55;;
78732;SDS011;68056;52.530;5.454;2023-09-08T08:00:50;4.78;;;3.58;;
78732;SDS011;68056;52.530;5.454;2023-09-08T08:03:18;4.10;;;3.70;;
78732;SDS011;68056;52.530;5.454;2023-09-08T08:05:44;5.50;;;5.00;;
78732;SDS011;68056;52.530;5.454;2023-09-08T08:08:09;4.43;;;3.65;;
78732;SDS011;68056;52.530;5.454;2023-09-08T08:10:35;5.35;;;4.75;;
78732;SDS011;68056;52.530;5.454;2023-09-08T08:13:01;4.40;;;4.00;;
78732;SDS011;68056;52.530;5.454;2023-09-08T08:15:40;4.25;;;3.80;;
78732;SDS011;68056;52.530;5.454;2023-09-08T08:18:08;4.30;;;3.90;;
78732;SDS011;68056;52.530;5.454;2023-09-08T08:20:35;5.30;;;4.18;;
78732;SDS011;68056;52.530;5.454;2023-09-08T08:23:01;4.35;;;3.92;;
78732;SDS011;68056;52.530;5.454;2023-09-08T08:25:27;4.63;;;4.20;;
78732;SDS011;68056;52.530;5.454;2023-09-08T08:27:53;9.02;;;4.32;;
78732;SDS011;68056;52.530;5.454;2023-09-08T08:30:19;5.18;;;4.40;;
78732;SDS011;68056;52.530;5.454;2023-09-08T08:46:57;4.68;;;4.25;;
78732;SDS011;68056;52.530;5.454;2023-09-08T08:49:22;4.70;;;4.30;;
78732;SDS011;68056;52.530;5.454;2023-09-08T09:05:32;5.40;;;4.45;;
78732;SDS011;68056;52.530;5.454;2023-09-08T09:08:22;3.95;;;3.65;;
78732;SDS011;68056;52.530;5.454;2023-09-08T09:10:57;5.63;;;5.00;;
78732;SDS011;68056;52.530;5.454;2023-09-08T09:13:25;4.95;;;4.45;;
78732;SDS011;68056;52.530;5.454;2023-09-08T09:22:45;8.73;;;4.60;;
78732;SDS011;68056;52.530;5.454;2023-09-08T09:28:08;4.57;;;4.00;;
78732;SDS011;68056;52.530;5.454;2023-09-08T09:30:49;5.38;;;4.88;;
78732;SDS011;68056;52.530;5.454;2023-09-08T09:33:16;5.45;;;4.45;;
78732;SDS011;68056;52.530;5.454;2023-09-08T09:38:44;5.43;;;4.90;;
78732;SDS011;68056;52.530;5.454;2023-09-08T09:41:12;5.20;;;4.65;;
78732;SDS011;68056;52.530;5.454;2023-09-08T09:43:37;5.40;;;4.85;;
78732;SDS011;68056;52.530;5.454;2023-09-08T09:46:03;5.63;;;5.00;;
78732;SDS011;68056;52.530;5.454;2023-09-08T09:48:33;5.85;;;5.30;;
78732;SDS011;68056;52.530;5.454;2023-09-08T09:53:40;5.93;;;4.43;;
78732;SDS011;68056;52.530;5.454;2023-09-08T09:56:07;6.05;;;5.38;;
78732;SDS011;68056;52.530;5.454;2023-09-08T10:04:28;5.55;;;4.93;;
78732;SDS011;68056;52.530;5.454;2023-09-08T10:06:54;6.15;;;5.55;;
78732;SDS011;68056;52.530;5.454;2023-09-08T10:09:23;6.85;;;6.15;;
78732;SDS011;68056;52.530;5.454;2023-09-08T10:12:04;5.95;;;5.43;;
78732;SDS011;68056;52.530;5.454;2023-09-08T10:14:36;6.03;;;5.20;;
78732;SDS011;68056;52.530;5.454;2023-09-08T10:17:07;5.63;;;4.72;;
78732;SDS011;68056;52.530;5.454;2023-09-08T10:19:36;4.85;;;4.35;;
78732;SDS011;68056;52.530;5.454;2023-09-08T10:24:56;5.45;;;4.95;;
78732;SDS011;68056;52.530;5.454;2023-09-08T10:27:23;6.03;;;5.53;;
78732;SDS011;68056;52.530;5.454;2023-09-08T10:29:49;5.50;;;5.00;;
78732;SDS011;68056;52.530;5.454;2023-09-08T10:32:15;7.53;;;5.97;;
78732;SDS011;68056;52.530;5.454;2023-09-08T10:34:43;6.63;;;5.97;;
78732;SDS011;68056;52.530;5.454;2023-09-08T10:37:20;6.07;;;5.35;;
78732;SDS011;68056;52.530;5.454;2023-09-08T10:39:47;5.72;;;5.22;;
78732;SDS011;68056;52.530;5.454;2023-09-08T10:44:43;6.30;;;5.72;;
78732;SDS011;68056;52.530;5.454;2023-09-08T10:47:24;5.45;;;5.00;;
78732;SDS011;68056;52.530;5.454;2023-09-08T10:49:51;5.78;;;5.18;;
78732;SDS011;68056;52.530;5.454;2023-09-08T10:52:20;6.43;;;5.60;;
78732;SDS011;68056;52.530;5.454;2023-09-08T10:57:48;5.30;;;4.80;;
78732;SDS011;68056;52.530;5.454;2023-09-08T11:00:19;6.10;;;5.53;;
78732;SDS011;68056;52.530;5.454;2023-09-08T11:02:48;6.32;;;5.65;;
78732;SDS011;68056;52.530;5.454;2023-09-08T11:05:15;5.65;;;4.82;;
78732;SDS011;68056;52.530;5.454;2023-09-08T11:07:44;5.20;;;4.78;;
78732;SDS011;68056;52.530;5.454;2023-09-08T11:12:37;5.35;;;4.85;;
78732;SDS011;68056;52.530;5.454;2023-09-08T11:15:03;5.43;;;4.93;;
78732;SDS011;68056;52.530;5.454;2023-09-08T11:17:31;5.38;;;4.88;;
78732;SDS011;68056;52.530;5.454;2023-09-08T11:19:59;5.55;;;5.05;;
78732;SDS011;68056;52.530;5.454;2023-09-08T11:22:25;5.05;;;4.55;;
78732;SDS011;68056;52.530;5.454;2023-09-08T11:24:55;6.25;;;5.25;;
78732;SDS011;68056;52.530;5.454;2023-09-08T11:27:25;7.38;;;5.40;;
78732;SDS011;68056;52.530;5.454;2023-09-08T11:29:52;5.03;;;4.63;;
78732;SDS011;68056;52.530;5.454;2023-09-08T11:32:18;5.55;;;4.97;;
78732;SDS011;68056;52.530;5.454;2023-09-08T11:34:44;5.07;;;4.68;;
78732;SDS011;68056;52.530;5.454;2023-09-08T11:39:38;5.90;;;5.10;;
78732;SDS011;68056;52.530;5.454;2023-09-08T11:44:30;5.03;;;4.63;;
78732;SDS011;68056;52.530;5.454;2023-09-08T11:46:56;4.72;;;4.32;;
78732;SDS011;68056;52.530;5.454;2023-09-08T11:49:22;5.07;;;4.57;;
78732;SDS011;68056;52.530;5.454;2023-09-08T11:51:49;4.63;;;4.22;;
78732;SDS011;68056;52.530;5.454;2023-09-08T11:56:40;4.78;;;4.25;;
78732;SDS011;68056;52.530;5.454;2023-09-08T11:59:06;5.07;;;4.57;;
78732;SDS011;68056;52.530;5.454;2023-09-08T12:01:33;4.95;;;4.53;;
78732;SDS011;68056;52.530;5.454;2023-09-08T12:03:58;5.47;;;4.95;;
78732;SDS011;68056;52.530;5.454;2023-09-08T12:06:25;5.63;;;5.13;;
78732;SDS011;68056;52.530;5.454;2023-09-08T12:08:52;5.53;;;5.00;;
78732;SDS011;68056;52.530;5.454;2023-09-08T12:11:21;4.63;;;4.32;;
78732;SDS011;68056;52.530;5.454;2023-09-08T12:13:46;4.80;;;4.40;;
78732;SDS011;68056;52.530;5.454;2023-09-08T12:16:19;5.78;;;5.13;;
78732;SDS011;68056;52.530;5.454;2023-09-08T12:18:47;5.70;;;5.20;;
78732;SDS011;68056;52.530;5.454;2023-09-08T12:21:14;5.03;;;4.63;;
78732;SDS011;68056;52.530;5.454;2023-09-08T12:23:49;5.43;;;4.93;;
78732;SDS011;68056;52.530;5.454;2023-09-08T12:26:16;5.63;;;4.75;;
78732;SDS011;68056;52.530;5.454;2023-09-08T12:28:42;6.55;;;4.72;;
78732;SDS011;68056;52.530;5.454;2023-09-08T12:31:08;6.25;;;4.82;;
78732;SDS011;68056;52.530;5.454;2023-09-08T12:33:35;5.43;;;4.93;;
78732;SDS011;68056;52.530;5.454;2023-09-08T12:38:37;4.72;;;4.32;;
78732;SDS011;68056;52.530;5.454;2023-09-08T12:41:03;5.05;;;4.53;;
78732;SDS011;68056;52.530;5.454;2023-09-08T12:43:29;5.72;;;5.32;;
78732;SDS011;68056;52.530;5.454;2023-09-08T12:45:55;5.18;;;4.70;;
78732;SDS011;68056;52.530;5.454;2023-09-08T12:48:21;5.90;;;5.40;;
78732;SDS011;68056;52.530;5.454;2023-09-08T12:50:47;5.75;;;5.18;;
78732;SDS011;68056;52.530;5.454;2023-09-08T12:53:14;4.97;;;4.57;;
78732;SDS011;68056;52.530;5.454;2023-09-08T12:55:41;5.72;;;5.30;;
78732;SDS011;68056;52.530;5.454;2023-09-08T12:58:07;5.82;;;5.05;;
78732;SDS011;68056;52.530;5.454;2023-09-08T13:00:33;6.78;;;5.53;;
78732;SDS011;68056;52.530;5.454;2023-09-08T13:02:58;5.72;;;5.22;;
78732;SDS011;68056;52.530;5.454;2023-09-08T13:05:24;5.18;;;4.78;;
78732;SDS011;68056;52.530;5.454;2023-09-08T13:07:49;5.90;;;5.40;;
78732;SDS011;68056;52.530;5.454;2023-09-08T13:10:15;6.28;;;5.70;;
78732;SDS011;68056;52.530;5.454;2023-09-08T13:12:41;5.97;;;5.47;;
78732;SDS011;68056;52.530;5.454;2023-09-08T13:15:07;6.38;;;5.78;;
78732;SDS011;68056;52.530;5.454;2023-09-08T13:17:33;6.03;;;5.43;;
78732;SDS011;68056;52.530;5.454;2023-09-08T13:19:59;6.40;;;5.80;;
78732;SDS011;68056;52.530;5.454;2023-09-08T13:22:24;5.68;;;5.18;;
78732;SDS011;68056;52.530;5.454;2023-09-08T13:24:50;5.63;;;5.15;;
78732;SDS011;68056;52.530;5.454;2023-09-08T13:27:16;6.45;;;5.85;;
78732;SDS011;68056;52.530;5.454;2023-09-08T13:29:43;6.18;;;5.68;;
78732;SDS011;68056;52.530;5.454;2023-09-08T13:32:08;6.60;;;6.00;;
78732;SDS011;68056;52.530;5.454;2023-09-08T13:34:34;6.05;;;5.55;;
78732;SDS011;68056;52.530;5.454;2023-09-08T13:37:01;6.05;;;5.55;;
78732;SDS011;68056;52.530;5.454;2023-09-08T13:39:27;7.15;;;6.45;;
78732;SDS011;68056;52.530;5.454;2023-09-08T13:41:54;6.68;;;6.03;;
78732;SDS011;68056;52.530;5.454;2023-09-08T13:44:22;6.63;;;6.00;;
78732;SDS011;68056;52.530;5.454;2023-09-08T13:46:52;5.97;;;5.47;;
78732;SDS011;68056;52.530;5.454;2023-09-08T13:49:19;7.25;;;6.65;;
78732;SDS011;68056;52.530;5.454;2023-09-08T13:51:45;6.90;;;6.28;;
78732;SDS011;68056;52.530;5.454;2023-09-08T13:54:11;6.35;;;5.85;;
78732;SDS011;68056;52.530;5.454;2023-09-08T13:56:38;7.05;;;6.35;;
78732;SDS011;68056;52.530;5.454;2023-09-08T13:59:05;7.32;;;6.63;;
78732;SDS011;68056;52.530;5.454;2023-09-08T14:01:32;6.22;;;5.72;;
78732;SDS011;68056;52.530;5.454;2023-09-08T14:03:59;6.28;;;5.78;;
78732;SDS011;68056;52.530;5.454;2023-09-08T14:06:25;6.53;;;5.93;;
78732;SDS011;68056;52.530;5.454;2023-09-08T14:08:51;6.82;;;6.22;;
78732;SDS011;68056;52.530;5.454;2023-09-08T14:11:17;7.63;;;6.03;;
78732;SDS011;68056;52.530;5.454;2023-09-08T14:13:43;6.70;;;5.97;;
78732;SDS011;68056;52.530;5.454;2023-09-08T14:16:08;6.50;;;5.90;;
78732;SDS011;68056;52.530;5.454;2023-09-08T14:18:34;7.30;;;6.68;;
78732;SDS011;68056;52.530;5.454;2023-09-08T14:21:00;6.30;;;5.78;;
78732;SDS011;68056;52.530;5.454;2023-09-08T14:23:26;6.57;;;6.05;;
78732;SDS011;68056;52.530;5.454;2023-09-08T14:25:51;6.93;;;6.32;;
78732;SDS011;68056;52.530;5.454;2023-09-08T14:28:17;6.05;;;5.45;;
78732;SDS011;68056;52.530;5.454;2023-09-08T14:30:43;6.82;;;6.22;;
78732;SDS011;68056;52.530;5.454;2023-09-08T14:33:09;6.45;;;5.85;;
78732;SDS011;68056;52.530;5.454;2023-09-08T14:35:35;6.88;;;6.38;;
78732;SDS011;68056;52.530;5.454;2023-09-08T14:38:00;6.82;;;6.25;;
78732;SDS011;68056;52.530;5.454;2023-09-08T14:40:26;6.45;;;5.95;;
78732;SDS011;68056;52.530;5.454;2023-09-08T14:42:52;6.63;;;5.65;;
78732;SDS011;68056;52.530;5.454;2023-09-08T14:45:17;5.50;;;5.00;;
78732;SDS011;68056;52.530;5.454;2023-09-08T14:47:43;6.35;;;5.75;;
78732;SDS011;68056;52.530;5.454;2023-09-08T14:50:08;5.47;;;4.97;;
78732;SDS011;68056;52.530;5.454;2023-09-08T14:52:34;5.65;;;4.85;;
78732;SDS011;68056;52.530;5.454;2023-09-08T14:55:00;5.43;;;5.03;;
78732;SDS011;68056;52.530;5.454;2023-09-08T14:57:25;5.80;;;5.30;;
78732;SDS011;68056;52.530;5.454;2023-09-08T14:59:51;6.38;;;5.88;;
78732;SDS011;68056;52.530;5.454;2023-09-08T15:02:20;5.10;;;4.60;;
78732;SDS011;68056;52.530;5.454;2023-09-08T15:04:46;6.00;;;5.50;;
78732;SDS011;68056;52.530;5.454;2023-09-08T15:07:11;7.20;;;5.30;;
78732;SDS011;68056;52.530;5.454;2023-09-08T15:09:37;6.05;;;5.38;;
78732;SDS011;68056;52.530;5.454;2023-09-08T15:12:02;5.65;;;5.13;;
78732;SDS011;68056;52.530;5.454;2023-09-08T15:14:28;5.63;;;5.00;;
78732;SDS011;68056;52.530;5.454;2023-09-08T15:16:54;5.55;;;5.15;;
78732;SDS011;68056;52.530;5.454;2023-09-08T15:19:19;5.70;;;5.13;;
78732;SDS011;68056;52.530;5.454;2023-09-08T15:21:45;5.57;;;5.07;;
78732;SDS011;68056;52.530;5.454;2023-09-08T15:24:11;5.70;;;5.20;;
78732;SDS011;68056;52.530;5.454;2023-09-08T15:26:36;6.57;;;5.47;;
78732;SDS011;68056;52.530;5.454;2023-09-08T15:29:02;4.90;;;4.45;;
78732;SDS011;68056;52.530;5.454;2023-09-08T15:31:29;5.10;;;4.65;;
78732;SDS011;68056;52.530;5.454;2023-09-08T15:33:54;4.72;;;4.32;;
78732;SDS011;68056;52.530;5.454;2023-09-08T15:36:20;4.72;;;4.32;;
78732;SDS011;68056;52.530;5.454;2023-09-08T15:38:45;4.60;;;4.20;;
78732;SDS011;68056;52.530;5.454;2023-09-08T15:41:14;5.88;;;5.38;;
78732;SDS011;68056;52.530;5.454;2023-09-08T15:43:46;4.70;;;4.30;;
78732;SDS011;68056;52.530;5.454;2023-09-08T15:46:13;5.07;;;4.68;;
78732;SDS011;68056;52.530;5.454;2023-09-08T15:48:39;4.88;;;4.43;;
78732;SDS011;68056;52.530;5.454;2023-09-08T15:51:05;5.28;;;4.70;;
78732;SDS011;68056;52.530;5.454;2023-09-08T15:53:31;5.50;;;5.00;;
78732;SDS011;68056;52.530;5.454;2023-09-08T15:55:57;5.63;;;5.13;;
78732;SDS011;68056;52.530;5.454;2023-09-08T15:58:23;5.97;;;5.38;;